createdAt,value
2023-01-31T00:04:10.043Z,1019.31
2023-01-31T00:10:32.969Z,1019.31
2023-01-31T00:16:53.011Z,1019.33
2023-01-31T00:23:16.000Z,1019.37
2023-01-31T00:29:36.081Z,1019.37
2023-01-31T00:35:59.001Z,1019.41
2023-01-31T00:42:19.000Z,1019.39
2023-01-31T00:48:42.016Z,1019.35
2023-01-31T00:55:02.018Z,1019.33
2023-01-31T01:01:25.005Z,1019.35
2023-01-31T01:07:45.031Z,1019.31
2023-01-31T01:14:08.022Z,1019.29
2023-01-31T01:20:27.999Z,1019.29
2023-01-31T01:26:51.036Z,1019.37
2023-01-31T01:33:11.080Z,1019.39
2023-01-31T01:39:34.447Z,1019.41
2023-01-31T01:45:54.090Z,1019.43
2023-01-31T01:52:17.030Z,1019.37
2023-01-31T01:58:37.005Z,1019.35
2023-01-31T02:05:00.012Z,1019.35
2023-01-31T02:11:20.037Z,1019.33
2023-01-31T02:17:42.995Z,1019.29
2023-01-31T02:24:03.044Z,1019.25
2023-01-31T02:30:26.437Z,1019.25
2023-01-31T02:36:45.999Z,1019.21
2023-01-31T02:43:08.978Z,1019.19
2023-01-31T02:49:29.049Z,1019.15
2023-01-31T02:55:51.982Z,1019.15
2023-01-31T03:02:12.035Z,1019.23
2023-01-31T03:08:35.061Z,1019.31
2023-01-31T03:14:55.047Z,1019.35
2023-01-31T03:21:18.473Z,1019.33
2023-01-31T03:27:38.020Z,1019.37
2023-01-31T03:34:00.987Z,1019.35
2023-01-31T03:40:21.055Z,1019.35
2023-01-31T03:46:43.997Z,1019.27
2023-01-31T03:53:03.986Z,1019.25
2023-01-31T03:59:27.011Z,1019.21
2023-01-31T04:05:47.021Z,1019.21
2023-01-31T04:27:41.018Z,1019.12
2023-01-31T04:34:04.018Z,1019.12
2023-01-31T04:40:24.024Z,1019.04
2023-01-31T04:46:47.103Z,1018.96
2023-01-31T04:53:07.183Z,1018.9
2023-01-31T04:59:30.045Z,1018.82
2023-01-31T05:05:50.114Z,1018.82
2023-01-31T05:12:12.981Z,1018.76
2023-01-31T05:18:32.991Z,1018.71
2023-01-31T05:24:57.608Z,1018.69
2023-01-31T05:31:16.060Z,1018.65
2023-01-31T05:37:39.018Z,1018.67
2023-01-31T05:43:59.012Z,1018.67
2023-01-31T05:50:22.002Z,1018.67
2023-01-31T05:56:42.007Z,1018.67
2023-01-31T06:03:05.104Z,1018.67
2023-01-31T06:09:24.985Z,1018.69
2023-01-31T06:15:48.009Z,1018.69
2023-01-31T06:22:08.012Z,1018.67
2023-01-31T06:28:31.006Z,1018.67
2023-01-31T06:34:51.021Z,1018.61
2023-01-31T06:41:14.064Z,1018.53
2023-01-31T06:47:34.277Z,1018.49
2023-01-31T06:53:57.030Z,1018.41
2023-01-31T07:00:17.006Z,1018.43
2023-01-31T07:06:39.993Z,1018.45
2023-01-31T07:12:59.986Z,1018.47
2023-01-31T07:19:23.008Z,1018.53
2023-01-31T07:25:43.005Z,1018.55
2023-01-31T07:32:05.998Z,1018.57
2023-01-31T07:38:26.053Z,1018.57
2023-01-31T07:44:49.020Z,1018.61
2023-01-31T07:51:08.997Z,1018.63
2023-01-31T07:57:32.181Z,1018.57
2023-01-31T08:03:51.980Z,1018.45
2023-01-31T08:10:15.015Z,1018.39
2023-01-31T08:16:35.025Z,1018.19
2023-01-31T08:22:57.984Z,1018.17
2023-01-31T08:29:17.988Z,1018.23
2023-01-31T08:35:41.030Z,1018.35
2023-01-31T08:42:00.980Z,1018.39
2023-01-31T08:48:24.019Z,1018.35
2023-01-31T08:54:44.111Z,1018.25
2023-01-31T09:01:07.003Z,1018.21
2023-01-31T09:07:27.010Z,1018.21
2023-01-31T09:13:50.055Z,1018.27
2023-01-31T09:30:15.007Z,1018.07
2023-01-31T09:36:37.981Z,1018.03
2023-01-31T09:42:57.988Z,1017.91
2023-01-31T09:49:21.030Z,1017.8
2023-01-31T09:55:41.019Z,1017.74
2023-01-31T10:02:04.178Z,1017.72
2023-01-31T10:08:24.003Z,1017.7
2023-01-31T10:14:46.988Z,1017.64
2023-01-31T10:21:06.991Z,1017.56
2023-01-31T10:27:30.446Z,1017.5
2023-01-31T10:33:50.005Z,1017.44
2023-01-31T10:40:13.000Z,1017.42
2023-01-31T10:46:33.220Z,1017.38
2023-01-31T10:52:56.000Z,1017.31
2023-01-31T10:59:15.988Z,1017.15
2023-01-31T11:05:39.015Z,1017.05
2023-01-31T11:11:59.011Z,1016.94
2023-01-31T11:18:22.019Z,1016.74
2023-01-31T11:24:42.015Z,1016.58
2023-01-31T11:31:05.135Z,1016.39
2023-01-31T11:37:24.994Z,1016.21
2023-01-31T11:43:48.050Z,1016.03
2023-01-31T11:50:08.023Z,1015.96
2023-01-31T11:56:31.004Z,1015.86
2023-01-31T12:02:51.034Z,1015.78
2023-01-31T12:09:14.084Z,1015.6
2023-01-31T12:15:34.149Z,1015.5
2023-01-31T12:21:57.029Z,1015.4
2023-01-31T12:28:17.003Z,1015.36
2023-01-31T12:34:47.137Z,1015.28
2023-01-31T12:41:00.032Z,1015.26
2023-01-31T12:47:23.031Z,1015.28
2023-01-31T12:53:42.981Z,1015.36
2023-01-31T13:00:06.019Z,1015.4
2023-01-31T13:06:26.160Z,1015.36
2023-01-31T13:12:49.220Z,1015.36
2023-01-31T13:19:09.026Z,1015.3
2023-01-31T13:25:31.972Z,1015.16
2023-01-31T13:31:52.060Z,1015.15
2023-01-31T13:38:15.076Z,1015.11
2023-01-31T13:44:34.989Z,1015.15
2023-01-31T13:50:58.140Z,1015.24
2023-01-31T13:57:18.211Z,1015.18
2023-01-31T14:03:41.034Z,1015.16
2023-01-31T14:10:01.030Z,1015.09
2023-01-31T14:16:24.017Z,1015.11
2023-01-31T14:34:46.599Z,1015.24
2023-01-31T14:41:05.973Z,1015.28
2023-01-31T14:47:29.002Z,1015.26
2023-01-31T14:53:49.028Z,1015.2
2023-01-31T15:00:12.004Z,1015.2
2023-01-31T15:06:32.103Z,1015.22
2023-01-31T15:12:55.009Z,1015.2
2023-01-31T15:19:15.012Z,1015.18
2023-01-31T15:25:39.207Z,1015.28
2023-01-31T15:31:59.091Z,1015.24
2023-01-31T15:38:22.036Z,1015.2
2023-01-31T15:44:41.976Z,1015.28
2023-01-31T15:51:05.034Z,1015.42
2023-01-31T15:57:25.006Z,1015.48
2023-01-31T16:03:47.983Z,1015.6
2023-01-31T16:10:08.161Z,1015.63
2023-01-31T16:16:31.082Z,1015.78
2023-01-31T16:22:50.983Z,1015.78
2023-01-31T16:29:13.998Z,1015.78
2023-01-31T16:35:34.030Z,1015.78
2023-01-31T16:41:58.014Z,1015.78
2023-01-31T16:48:17.006Z,1015.84
2023-01-31T16:54:40.031Z,1015.92
2023-01-31T17:00:59.976Z,1015.96
2023-01-31T17:07:23.046Z,1016.01
2023-01-31T17:13:43.006Z,1016.07
2023-01-31T17:20:05.982Z,1016.13
2023-01-31T17:26:26.071Z,1016.15
2023-01-31T17:32:48.985Z,1016.19
2023-01-31T17:39:08.981Z,1016.25
2023-01-31T17:45:32.014Z,1016.25
2023-01-31T17:51:52.020Z,1016.25
2023-01-31T17:58:15.033Z,1016.29
2023-01-31T18:04:35.032Z,1016.31
2023-01-31T18:10:58.008Z,1016.23
2023-01-31T18:17:17.995Z,1016.07
2023-01-31T18:23:41.099Z,1016
2023-01-31T18:30:01.005Z,1015.96
2023-01-31T18:36:24.017Z,1015.94
2023-01-31T18:42:44.053Z,1015.9
2023-01-31T18:49:07.039Z,1015.8
2023-01-31T18:55:27.009Z,1015.86
2023-01-31T19:01:50.083Z,1015.84
2023-01-31T19:08:09.979Z,1015.82
2023-01-31T19:14:33.011Z,1015.82
2023-01-31T19:20:53.014Z,1015.8
2023-01-31T19:27:15.991Z,1015.86
2023-01-31T19:50:57.507Z,1015.92
2023-01-31T19:57:16.974Z,1015.88
2023-01-31T20:03:39.983Z,1015.88
2023-01-31T20:10:00.007Z,1015.9
2023-01-31T20:16:23.010Z,1015.9
2023-01-31T20:22:42.994Z,1015.94
2023-01-31T20:29:06.044Z,1015.98
2023-01-31T20:35:26.002Z,1016.03
2023-01-31T20:41:48.990Z,1016.07
2023-01-31T20:48:09.025Z,1016.09
2023-01-31T20:54:32.003Z,1016.03
2023-01-31T21:00:51.983Z,1016.09
2023-01-31T21:07:15.041Z,1016.15
2023-01-31T21:13:35.027Z,1016.31
2023-01-31T21:19:58.025Z,1016.35
2023-01-31T21:26:18.095Z,1016.33
2023-01-31T21:32:40.992Z,1016.21
2023-01-31T21:39:00.987Z,1016.05
2023-01-31T21:45:24.051Z,1016
2023-01-31T21:51:43.995Z,1015.9
2023-01-31T21:58:07.018Z,1015.84
2023-01-31T22:04:27.037Z,1015.82
2023-01-31T22:10:49.969Z,1015.78
2023-01-31T22:17:09.985Z,1015.82
2023-01-31T22:23:33.029Z,1015.67
2023-01-31T22:29:54.133Z,1015.65
2023-01-31T22:36:16.132Z,1015.56
2023-01-31T22:42:36.008Z,1015.46
2023-01-31T22:48:58.996Z,1015.4
2023-01-31T22:55:19.009Z,1015.32
2023-01-31T23:19:37.001Z,1015.16
2023-01-31T23:25:56.961Z,1015.11
2023-01-31T23:32:20.013Z,1015.09
2023-01-31T23:38:39.996Z,1015.01
2023-01-31T23:45:02.993Z,1015.01
2023-01-31T23:51:22.993Z,1014.99
2023-01-31T23:57:46.030Z,1015.03
